sensor_id;sensor_type;location;lat;lon;timestamp;P1;durP1;ratioP1;P2;durP2;ratioP2
13048;SDS011;6591;51.446;5.404;2023-03-11T00:00:43;4.50;;;1.73;;
13048;SDS011;6591;51.446;5.404;2023-03-11T00:03:13;3.13;;;1.53;;
13048;SDS011;6591;51.446;5.404;2023-03-11T00:05:44;1.80;;;1.40;;
13048;SDS011;6591;51.446;5.404;2023-03-11T00:08:14;3.33;;;1.77;;
13048;SDS011;6591;51.446;5.404;2023-03-11T00:10:45;2.77;;;1.53;;
13048;SDS011;6591;51.446;5.404;2023-03-11T00:13:16;4.90;;;1.30;;
13048;SDS011;6591;51.446;5.404;2023-03-11T00:15:45;5.07;;;1.90;;
13048;SDS011;6591;51.446;5.404;2023-03-11T00:18:15;3.80;;;1.37;;
13048;SDS011;6591;51.446;5.404;2023-03-11T00:20:43;4.23;;;1.57;;
13048;SDS011;6591;51.446;5.404;2023-03-11T00:23:14;4.27;;;1.40;;
13048;SDS011;6591;51.446;5.404;2023-03-11T00:25:42;3.30;;;1.30;;
13048;SDS011;6591;51.446;5.404;2023-03-11T00:28:11;5.40;;;1.47;;
13048;SDS011;6591;51.446;5.404;2023-03-11T00:30:40;2.83;;;1.10;;
13048;SDS011;6591;51.446;5.404;2023-03-11T00:33:11;3.20;;;1.30;;
13048;SDS011;6591;51.446;5.404;2023-03-11T00:35:41;3.77;;;1.40;;
13048;SDS011;6591;51.446;5.404;2023-03-11T00:38:10;4.13;;;1.30;;
13048;SDS011;6591;51.446;5.404;2023-03-11T00:40:41;3.13;;;1.47;;
13048;SDS011;6591;51.446;5.404;2023-03-11T00:43:10;6.10;;;1.43;;
13048;SDS011;6591;51.446;5.404;2023-03-11T00:45:38;5.57;;;1.63;;
13048;SDS011;6591;51.446;5.404;2023-03-11T00:48:05;3.13;;;1.50;;
13048;SDS011;6591;51.446;5.404;2023-03-11T00:50:35;3.33;;;1.67;;
13048;SDS011;6591;51.446;5.404;2023-03-11T00:53:03;4.23;;;1.67;;
13048;SDS011;6591;51.446;5.404;2023-03-11T00:55:32;4.10;;;1.63;;
13048;SDS011;6591;51.446;5.404;2023-03-11T00:58:07;3.60;;;1.37;;
13048;SDS011;6591;51.446;5.404;2023-03-11T01:00:42;3.03;;;1.40;;
13048;SDS011;6591;51.446;5.404;2023-03-11T01:03:09;5.60;;;1.70;;
13048;SDS011;6591;51.446;5.404;2023-03-11T01:05:37;5.90;;;1.90;;
13048;SDS011;6591;51.446;5.404;2023-03-11T01:08:04;4.20;;;1.70;;
13048;SDS011;6591;51.446;5.404;2023-03-11T01:10:34;5.30;;;1.40;;
13048;SDS011;6591;51.446;5.404;2023-03-11T01:13:02;4.57;;;1.30;;
13048;SDS011;6591;51.446;5.404;2023-03-11T01:15:32;4.30;;;1.60;;
13048;SDS011;6591;51.446;5.404;2023-03-11T01:18:02;5.93;;;1.70;;
13048;SDS011;6591;51.446;5.404;2023-03-11T01:20:32;3.83;;;1.57;;
13048;SDS011;6591;51.446;5.404;2023-03-11T01:23:03;4.23;;;1.50;;
13048;SDS011;6591;51.446;5.404;2023-03-11T01:25:31;4.27;;;1.53;;
13048;SDS011;6591;51.446;5.404;2023-03-11T01:27:59;6.43;;;2.33;;
13048;SDS011;6591;51.446;5.404;2023-03-11T01:30:28;4.70;;;1.47;;
13048;SDS011;6591;51.446;5.404;2023-03-11T01:32:58;5.40;;;1.73;;
13048;SDS011;6591;51.446;5.404;2023-03-11T01:35:27;3.83;;;1.47;;
13048;SDS011;6591;51.446;5.404;2023-03-11T01:37:56;2.07;;;1.50;;
13048;SDS011;6591;51.446;5.404;2023-03-11T01:40:35;8.17;;;1.90;;
13048;SDS011;6591;51.446;5.404;2023-03-11T01:49:20;4.00;;;1.50;;
13048;SDS011;6591;51.446;5.404;2023-03-11T01:51:53;7.70;;;1.60;;
13048;SDS011;6591;51.446;5.404;2023-03-11T01:54:33;2.57;;;1.80;;
13048;SDS011;6591;51.446;5.404;2023-03-11T01:57:05;4.77;;;1.47;;
13048;SDS011;6591;51.446;5.404;2023-03-11T01:59:40;3.20;;;1.50;;
13048;SDS011;6591;51.446;5.404;2023-03-11T02:02:25;3.80;;;1.50;;
13048;SDS011;6591;51.446;5.404;2023-03-11T02:05:03;3.00;;;1.30;;
13048;SDS011;6591;51.446;5.404;2023-03-11T02:07:30;3.53;;;1.70;;
13048;SDS011;6591;51.446;5.404;2023-03-11T02:09:59;2.50;;;1.50;;
13048;SDS011;6591;51.446;5.404;2023-03-11T02:12:28;3.23;;;1.83;;
13048;SDS011;6591;51.446;5.404;2023-03-11T02:15:01;2.90;;;1.73;;
13048;SDS011;6591;51.446;5.404;2023-03-11T02:17:33;3.00;;;1.60;;
13048;SDS011;6591;51.446;5.404;2023-03-11T02:22:42;3.87;;;2.00;;
13048;SDS011;6591;51.446;5.404;2023-03-11T02:25:25;5.67;;;1.90;;
13048;SDS011;6591;51.446;5.404;2023-03-11T02:28:07;8.47;;;1.97;;
13048;SDS011;6591;51.446;5.404;2023-03-11T02:30:40;2.63;;;1.37;;
13048;SDS011;6591;51.446;5.404;2023-03-11T02:33:09;2.70;;;1.90;;
13048;SDS011;6591;51.446;5.404;2023-03-11T02:35:44;4.67;;;1.80;;
13048;SDS011;6591;51.446;5.404;2023-03-11T02:38:11;3.10;;;1.80;;
13048;SDS011;6591;51.446;5.404;2023-03-11T02:40:43;4.57;;;1.80;;
13048;SDS011;6591;51.446;5.404;2023-03-11T02:43:24;3.27;;;1.47;;
13048;SDS011;6591;51.446;5.404;2023-03-11T02:46:02;5.37;;;1.50;;
13048;SDS011;6591;51.446;5.404;2023-03-11T02:48:34;4.07;;;1.73;;
13048;SDS011;6591;51.446;5.404;2023-03-11T02:51:03;4.77;;;1.60;;
13048;SDS011;6591;51.446;5.404;2023-03-11T02:53:32;5.17;;;1.67;;
13048;SDS011;6591;51.446;5.404;2023-03-11T02:56:07;2.67;;;1.60;;
13048;SDS011;6591;51.446;5.404;2023-03-11T02:58:34;2.37;;;1.40;;
13048;SDS011;6591;51.446;5.404;2023-03-11T03:01:01;3.93;;;1.90;;
13048;SDS011;6591;51.446;5.404;2023-03-11T03:03:30;3.83;;;1.70;;
13048;SDS011;6591;51.446;5.404;2023-03-11T03:05:57;4.43;;;1.80;;
13048;SDS011;6591;51.446;5.404;2023-03-11T03:08:25;3.33;;;1.70;;
13048;SDS011;6591;51.446;5.404;2023-03-11T03:10:52;4.27;;;1.97;;
13048;SDS011;6591;51.446;5.404;2023-03-11T03:13:19;6.17;;;2.10;;
13048;SDS011;6591;51.446;5.404;2023-03-11T03:15:47;4.57;;;1.63;;
13048;SDS011;6591;51.446;5.404;2023-03-11T03:18:14;1.80;;;1.40;;
13048;SDS011;6591;51.446;5.404;2023-03-11T03:20:42;5.50;;;2.00;;
13048;SDS011;6591;51.446;5.404;2023-03-11T03:23:09;2.13;;;1.70;;
13048;SDS011;6591;51.446;5.404;2023-03-11T03:25:40;3.73;;;1.50;;
13048;SDS011;6591;51.446;5.404;2023-03-11T03:28:10;3.73;;;1.90;;
13048;SDS011;6591;51.446;5.404;2023-03-11T03:30:41;5.63;;;1.83;;
13048;SDS011;6591;51.446;5.404;2023-03-11T03:33:09;4.20;;;1.67;;
13048;SDS011;6591;51.446;5.404;2023-03-11T03:35:39;4.93;;;1.93;;
13048;SDS011;6591;51.446;5.404;2023-03-11T03:38:18;3.47;;;1.63;;
13048;SDS011;6591;51.446;5.404;2023-03-11T03:40:46;3.73;;;1.70;;
13048;SDS011;6591;51.446;5.404;2023-03-11T03:43:16;4.93;;;1.90;;
13048;SDS011;6591;51.446;5.404;2023-03-11T03:45:45;4.10;;;1.80;;
13048;SDS011;6591;51.446;5.404;2023-03-11T03:48:23;2.83;;;1.70;;
13048;SDS011;6591;51.446;5.404;2023-03-11T03:50:50;3.27;;;1.97;;
13048;SDS011;6591;51.446;5.404;2023-03-11T03:53:18;3.13;;;1.70;;
13048;SDS011;6591;51.446;5.404;2023-03-11T03:55:46;2.43;;;1.67;;
13048;SDS011;6591;51.446;5.404;2023-03-11T03:58:15;3.13;;;1.80;;
13048;SDS011;6591;51.446;5.404;2023-03-11T04:00:43;2.83;;;1.53;;
13048;SDS011;6591;51.446;5.404;2023-03-11T04:03:11;2.80;;;1.40;;
13048;SDS011;6591;51.446;5.404;2023-03-11T04:06:14;6.07;;;1.70;;
13048;SDS011;6591;51.446;5.404;2023-03-11T04:09:01;3.67;;;1.70;;
13048;SDS011;6591;51.446;5.404;2023-03-11T04:11:38;2.30;;;1.40;;
13048;SDS011;6591;51.446;5.404;2023-03-11T04:14:06;2.80;;;1.73;;
13048;SDS011;6591;51.446;5.404;2023-03-11T04:16:39;6.40;;;2.00;;
13048;SDS011;6591;51.446;5.404;2023-03-11T04:19:10;3.83;;;1.97;;
13048;SDS011;6591;51.446;5.404;2023-03-11T04:21:37;2.67;;;1.63;;
13048;SDS011;6591;51.446;5.404;2023-03-11T04:24:04;4.90;;;1.83;;
13048;SDS011;6591;51.446;5.404;2023-03-11T04:26:36;2.87;;;1.90;;
13048;SDS011;6591;51.446;5.404;2023-03-11T04:29:06;4.37;;;1.80;;
13048;SDS011;6591;51.446;5.404;2023-03-11T04:31:39;2.60;;;1.70;;
13048;SDS011;6591;51.446;5.404;2023-03-11T04:34:07;4.80;;;1.67;;
13048;SDS011;6591;51.446;5.404;2023-03-11T04:36:35;2.27;;;1.63;;
13048;SDS011;6591;51.446;5.404;2023-03-11T04:39:03;4.10;;;1.80;;
13048;SDS011;6591;51.446;5.404;2023-03-11T04:41:35;4.93;;;1.90;;
13048;SDS011;6591;51.446;5.404;2023-03-11T04:44:04;3.33;;;1.83;;
13048;SDS011;6591;51.446;5.404;2023-03-11T04:46:37;3.10;;;1.67;;
13048;SDS011;6591;51.446;5.404;2023-03-11T04:49:06;3.43;;;1.60;;
13048;SDS011;6591;51.446;5.404;2023-03-11T04:51:35;3.93;;;1.60;;
13048;SDS011;6591;51.446;5.404;2023-03-11T04:54:03;5.77;;;1.80;;
13048;SDS011;6591;51.446;5.404;2023-03-11T04:56:30;3.73;;;1.80;;
13048;SDS011;6591;51.446;5.404;2023-03-11T04:58:57;4.13;;;1.73;;
13048;SDS011;6591;51.446;5.404;2023-03-11T05:01:26;2.23;;;1.60;;
13048;SDS011;6591;51.446;5.404;2023-03-11T05:03:55;3.70;;;1.70;;
13048;SDS011;6591;51.446;5.404;2023-03-11T05:06:23;4.03;;;1.87;;
13048;SDS011;6591;51.446;5.404;2023-03-11T05:08:50;4.67;;;1.70;;
13048;SDS011;6591;51.446;5.404;2023-03-11T05:11:17;5.10;;;1.70;;
13048;SDS011;6591;51.446;5.404;2023-03-11T05:13:46;4.67;;;1.30;;
13048;SDS011;6591;51.446;5.404;2023-03-11T05:16:13;5.77;;;1.93;;
13048;SDS011;6591;51.446;5.404;2023-03-11T05:18:40;5.97;;;2.27;;
13048;SDS011;6591;51.446;5.404;2023-03-11T05:21:09;5.47;;;2.07;;
13048;SDS011;6591;51.446;5.404;2023-03-11T05:23:37;4.60;;;2.10;;
13048;SDS011;6591;51.446;5.404;2023-03-11T05:26:04;1.90;;;1.50;;
13048;SDS011;6591;51.446;5.404;2023-03-11T05:28:35;4.07;;;1.53;;
13048;SDS011;6591;51.446;5.404;2023-03-11T05:31:06;4.53;;;1.80;;
13048;SDS011;6591;51.446;5.404;2023-03-11T05:33:37;3.17;;;1.60;;
13048;SDS011;6591;51.446;5.404;2023-03-11T05:36:08;3.63;;;1.60;;
13048;SDS011;6591;51.446;5.404;2023-03-11T05:38:39;2.80;;;1.50;;
13048;SDS011;6591;51.446;5.404;2023-03-11T05:41:07;4.93;;;1.80;;
13048;SDS011;6591;51.446;5.404;2023-03-11T05:43:35;2.47;;;1.40;;
13048;SDS011;6591;51.446;5.404;2023-03-11T05:46:03;2.30;;;1.80;;
13048;SDS011;6591;51.446;5.404;2023-03-11T05:48:30;4.37;;;1.73;;
13048;SDS011;6591;51.446;5.404;2023-03-11T05:50:58;7.37;;;1.70;;
13048;SDS011;6591;51.446;5.404;2023-03-11T05:53:25;6.50;;;1.63;;
13048;SDS011;6591;51.446;5.404;2023-03-11T05:55:57;2.67;;;1.70;;
13048;SDS011;6591;51.446;5.404;2023-03-11T05:58:27;4.07;;;2.03;;
13048;SDS011;6591;51.446;5.404;2023-03-11T06:00:56;2.57;;;1.63;;
13048;SDS011;6591;51.446;5.404;2023-03-11T06:03:27;3.77;;;1.90;;
13048;SDS011;6591;51.446;5.404;2023-03-11T06:05:54;5.17;;;2.07;;
13048;SDS011;6591;51.446;5.404;2023-03-11T06:08:21;4.07;;;2.37;;
13048;SDS011;6591;51.446;5.404;2023-03-11T06:10:49;3.63;;;1.97;;
13048;SDS011;6591;51.446;5.404;2023-03-11T06:13:18;3.20;;;1.50;;
13048;SDS011;6591;51.446;5.404;2023-03-11T06:15:48;3.43;;;1.80;;
13048;SDS011;6591;51.446;5.404;2023-03-11T06:18:16;3.47;;;1.60;;
13048;SDS011;6591;51.446;5.404;2023-03-11T06:20:43;3.07;;;1.70;;
13048;SDS011;6591;51.446;5.404;2023-03-11T06:23:10;3.63;;;1.70;;
13048;SDS011;6591;51.446;5.404;2023-03-11T06:25:37;4.70;;;1.73;;
13048;SDS011;6591;51.446;5.404;2023-03-11T06:28:05;3.37;;;2.03;;
13048;SDS011;6591;51.446;5.404;2023-03-11T06:30:33;5.53;;;1.60;;
13048;SDS011;6591;51.446;5.404;2023-03-11T06:33:08;3.73;;;1.70;;
13048;SDS011;6591;51.446;5.404;2023-03-11T06:35:36;3.67;;;2.00;;
13048;SDS011;6591;51.446;5.404;2023-03-11T06:38:03;4.97;;;1.90;;
13048;SDS011;6591;51.446;5.404;2023-03-11T06:40:31;2.70;;;1.80;;
13048;SDS011;6591;51.446;5.404;2023-03-11T06:42:59;2.97;;;1.83;;
13048;SDS011;6591;51.446;5.404;2023-03-11T06:45:30;4.93;;;1.83;;
13048;SDS011;6591;51.446;5.404;2023-03-11T06:47:58;3.17;;;1.97;;
13048;SDS011;6591;51.446;5.404;2023-03-11T06:50:26;3.97;;;1.90;;
13048;SDS011;6591;51.446;5.404;2023-03-11T06:52:59;4.30;;;1.83;;
13048;SDS011;6591;51.446;5.404;2023-03-11T06:55:28;5.90;;;2.33;;
13048;SDS011;6591;51.446;5.404;2023-03-11T06:57:59;2.20;;;1.40;;
13048;SDS011;6591;51.446;5.404;2023-03-11T07:00:26;3.10;;;2.27;;
13048;SDS011;6591;51.446;5.404;2023-03-11T07:02:57;4.10;;;1.60;;
13048;SDS011;6591;51.446;5.404;2023-03-11T07:05:26;4.93;;;2.17;;
13048;SDS011;6591;51.446;5.404;2023-03-11T07:07:58;4.23;;;2.30;;
13048;SDS011;6591;51.446;5.404;2023-03-11T07:10:25;4.90;;;2.07;;
13048;SDS011;6591;51.446;5.404;2023-03-11T07:12:52;6.07;;;2.27;;
13048;SDS011;6591;51.446;5.404;2023-03-11T07:15:19;4.63;;;2.37;;
13048;SDS011;6591;51.446;5.404;2023-03-11T07:17:49;3.03;;;1.90;;
13048;SDS011;6591;51.446;5.404;2023-03-11T07:20:17;4.50;;;2.30;;
13048;SDS011;6591;51.446;5.404;2023-03-11T07:22:44;6.80;;;3.03;;
13048;SDS011;6591;51.446;5.404;2023-03-11T07:25:11;4.93;;;2.33;;
13048;SDS011;6591;51.446;5.404;2023-03-11T07:27:38;3.27;;;2.30;;
13048;SDS011;6591;51.446;5.404;2023-03-11T07:30:05;4.27;;;2.07;;
13048;SDS011;6591;51.446;5.404;2023-03-11T07:32:38;6.33;;;2.50;;
13048;SDS011;6591;51.446;5.404;2023-03-11T07:35:07;3.00;;;2.07;;
13048;SDS011;6591;51.446;5.404;2023-03-11T07:37:35;3.10;;;2.53;;
13048;SDS011;6591;51.446;5.404;2023-03-11T07:40:02;3.90;;;2.20;;
13048;SDS011;6591;51.446;5.404;2023-03-11T07:42:31;6.40;;;2.97;;
13048;SDS011;6591;51.446;5.404;2023-03-11T07:45:01;5.43;;;2.33;;
13048;SDS011;6591;51.446;5.404;2023-03-11T07:47:28;7.03;;;2.60;;
13048;SDS011;6591;51.446;5.404;2023-03-11T07:49:56;3.67;;;2.63;;
13048;SDS011;6591;51.446;5.404;2023-03-11T07:52:23;4.20;;;2.30;;
13048;SDS011;6591;51.446;5.404;2023-03-11T07:54:50;2.97;;;2.40;;
13048;SDS011;6591;51.446;5.404;2023-03-11T07:57:17;3.20;;;2.67;;
13048;SDS011;6591;51.446;5.404;2023-03-11T07:59:44;5.17;;;2.33;;
13048;SDS011;6591;51.446;5.404;2023-03-11T08:02:11;5.47;;;2.80;;
13048;SDS011;6591;51.446;5.404;2023-03-11T08:04:39;8.53;;;2.93;;
13048;SDS011;6591;51.446;5.404;2023-03-11T08:07:08;5.00;;;2.43;;
13048;SDS011;6591;51.446;5.404;2023-03-11T08:09:35;5.80;;;2.50;;
13048;SDS011;6591;51.446;5.404;2023-03-11T08:12:02;4.83;;;2.50;;
13048;SDS011;6591;51.446;5.404;2023-03-11T08:14:30;5.67;;;2.60;;
13048;SDS011;6591;51.446;5.404;2023-03-11T08:16:57;8.00;;;2.50;;
13048;SDS011;6591;51.446;5.404;2023-03-11T08:19:25;3.20;;;2.30;;
13048;SDS011;6591;51.446;5.404;2023-03-11T08:21:52;3.37;;;1.93;;
13048;SDS011;6591;51.446;5.404;2023-03-11T08:24:20;6.03;;;2.30;;
13048;SDS011;6591;51.446;5.404;2023-03-11T08:26:47;5.90;;;2.33;;
13048;SDS011;6591;51.446;5.404;2023-03-11T08:29:15;4.03;;;2.50;;
13048;SDS011;6591;51.446;5.404;2023-03-11T08:31:41;8.80;;;2.73;;
13048;SDS011;6591;51.446;5.404;2023-03-11T08:34:09;4.63;;;2.10;;
13048;SDS011;6591;51.446;5.404;2023-03-11T08:36:37;5.63;;;2.00;;
13048;SDS011;6591;51.446;5.404;2023-03-11T08:39:04;5.97;;;2.60;;
13048;SDS011;6591;51.446;5.404;2023-03-11T08:41:33;3.80;;;2.20;;
13048;SDS011;6591;51.446;5.404;2023-03-11T08:44:00;4.13;;;2.00;;
13048;SDS011;6591;51.446;5.404;2023-03-11T08:46:30;3.23;;;2.03;;
13048;SDS011;6591;51.446;5.404;2023-03-11T08:49:02;3.57;;;1.77;;
13048;SDS011;6591;51.446;5.404;2023-03-11T08:51:33;3.47;;;1.80;;
13048;SDS011;6591;51.446;5.404;2023-03-11T08:54:01;3.93;;;1.67;;
13048;SDS011;6591;51.446;5.404;2023-03-11T08:56:31;5.20;;;1.80;;
13048;SDS011;6591;51.446;5.404;2023-03-11T08:58:58;5.13;;;1.90;;
13048;SDS011;6591;51.446;5.404;2023-03-11T09:01:25;3.47;;;1.60;;
13048;SDS011;6591;51.446;5.404;2023-03-11T09:03:55;3.67;;;1.50;;
13048;SDS011;6591;51.446;5.404;2023-03-11T09:06:23;2.17;;;1.50;;
13048;SDS011;6591;51.446;5.404;2023-03-11T09:08:50;3.90;;;1.70;;
13048;SDS011;6591;51.446;5.404;2023-03-11T09:11:18;1.70;;;1.17;;
13048;SDS011;6591;51.446;5.404;2023-03-11T09:13:47;1.93;;;1.30;;
13048;SDS011;6591;51.446;5.404;2023-03-11T09:16:19;3.90;;;1.20;;
13048;SDS011;6591;51.446;5.404;2023-03-11T09:18:48;4.43;;;1.57;;
13048;SDS011;6591;51.446;5.404;2023-03-11T09:21:16;2.40;;;1.30;;
13048;SDS011;6591;51.446;5.404;2023-03-11T09:23:43;2.60;;;1.20;;
13048;SDS011;6591;51.446;5.404;2023-03-11T09:26:12;2.17;;;1.00;;
13048;SDS011;6591;51.446;5.404;2023-03-11T09:28:41;1.63;;;1.10;;
13048;SDS011;6591;51.446;5.404;2023-03-11T09:31:08;2.73;;;1.53;;
13048;SDS011;6591;51.446;5.404;2023-03-11T09:33:37;2.33;;;1.40;;
13048;SDS011;6591;51.446;5.404;2023-03-11T09:36:07;5.73;;;1.50;;
13048;SDS011;6591;51.446;5.404;2023-03-11T09:38:41;2.27;;;1.17;;
13048;SDS011;6591;51.446;5.404;2023-03-11T09:41:15;2.87;;;1.40;;
13048;SDS011;6591;51.446;5.404;2023-03-11T09:44:10;3.30;;;1.33;;
13048;SDS011;6591;51.446;5.404;2023-03-11T09:50:19;1.93;;;1.10;;
13048;SDS011;6591;51.446;5.404;2023-03-11T09:53:41;1.77;;;1.00;;
13048;SDS011;6591;51.446;5.404;2023-03-11T09:56:12;3.87;;;1.00;;
13048;SDS011;6591;51.446;5.404;2023-03-11T09:58:49;1.90;;;1.17;;
13048;SDS011;6591;51.446;5.404;2023-03-11T10:06:40;2.33;;;0.80;;
13048;SDS011;6591;51.446;5.404;2023-03-11T10:20:23;1.30;;;0.77;;
13048;SDS011;6591;51.446;5.404;2023-03-11T10:29:02;2.50;;;1.43;;
13048;SDS011;6591;51.446;5.404;2023-03-11T10:32:00;2.23;;;0.80;;
13048;SDS011;6591;51.446;5.404;2023-03-11T10:34:48;0.70;;;0.50;;
13048;SDS011;6591;51.446;5.404;2023-03-11T10:37:58;0.93;;;0.60;;
13048;SDS011;6591;51.446;5.404;2023-03-11T10:40:42;2.93;;;0.83;;
13048;SDS011;6591;51.446;5.404;2023-03-11T10:43:15;2.33;;;0.90;;
13048;SDS011;6591;51.446;5.404;2023-03-11T10:45:50;1.90;;;1.03;;
13048;SDS011;6591;51.446;5.404;2023-03-11T10:48:20;1.17;;;0.73;;
13048;SDS011;6591;51.446;5.404;2023-03-11T10:53:46;3.13;;;1.00;;
13048;SDS011;6591;51.446;5.404;2023-03-11T10:56:26;3.03;;;0.83;;
13048;SDS011;6591;51.446;5.404;2023-03-11T11:01:58;1.57;;;0.73;;
13048;SDS011;6591;51.446;5.404;2023-03-11T11:07:48;2.73;;;0.80;;
13048;SDS011;6591;51.446;5.404;2023-03-11T11:10:29;2.30;;;1.03;;
13048;SDS011;6591;51.446;5.404;2023-03-11T11:15:48;1.57;;;0.97;;
13048;SDS011;6591;51.446;5.404;2023-03-11T11:18:35;0.53;;;0.50;;
13048;SDS011;6591;51.446;5.404;2023-03-11T11:21:28;2.37;;;0.67;;
13048;SDS011;6591;51.446;5.404;2023-03-11T11:26:41;1.07;;;0.80;;
13048;SDS011;6591;51.446;5.404;2023-03-11T11:29:30;1.90;;;0.90;;
13048;SDS011;6591;51.446;5.404;2023-03-11T11:32:14;0.90;;;0.70;;
13048;SDS011;6591;51.446;5.404;2023-03-11T11:37:34;3.63;;;1.00;;
13048;SDS011;6591;51.446;5.404;2023-03-11T11:42:46;2.70;;;0.90;;
13048;SDS011;6591;51.446;5.404;2023-03-11T11:45:25;2.60;;;1.00;;
13048;SDS011;6591;51.446;5.404;2023-03-11T11:48:23;2.73;;;1.00;;
13048;SDS011;6591;51.446;5.404;2023-03-11T11:51:18;1.50;;;1.00;;
13048;SDS011;6591;51.446;5.404;2023-03-11T11:57:41;1.37;;;0.80;;
13048;SDS011;6591;51.446;5.404;2023-03-11T12:03:51;2.03;;;0.90;;
13048;SDS011;6591;51.446;5.404;2023-03-11T12:06:43;1.77;;;0.90;;
13048;SDS011;6591;51.446;5.404;2023-03-11T12:09:35;3.87;;;1.20;;
13048;SDS011;6591;51.446;5.404;2023-03-11T12:12:32;1.97;;;0.80;;
13048;SDS011;6591;51.446;5.404;2023-03-11T12:15:19;1.33;;;0.80;;
13048;SDS011;6591;51.446;5.404;2023-03-11T12:18:05;1.90;;;0.73;;
13048;SDS011;6591;51.446;5.404;2023-03-11T12:20:53;1.67;;;0.93;;
13048;SDS011;6591;51.446;5.404;2023-03-11T12:26:21;2.27;;;0.90;;
13048;SDS011;6591;51.446;5.404;2023-03-11T12:31:33;1.90;;;1.00;;
13048;SDS011;6591;51.446;5.404;2023-03-11T12:34:11;1.43;;;0.80;;
13048;SDS011;6591;51.446;5.404;2023-03-11T12:36:44;3.00;;;1.10;;
13048;SDS011;6591;51.446;5.404;2023-03-11T12:39:20;2.07;;;0.90;;
13048;SDS011;6591;51.446;5.404;2023-03-11T12:42:28;1.63;;;0.90;;
13048;SDS011;6591;51.446;5.404;2023-03-11T12:44:53;0.70;;;0.63;;
13048;SDS011;6591;51.446;5.404;2023-03-11T12:47:40;1.60;;;1.00;;
13048;SDS011;6591;51.446;5.404;2023-03-11T12:53:08;6.33;;;1.30;;
13048;SDS011;6591;51.446;5.404;2023-03-11T13:18:40;4.20;;;1.00;;
13048;SDS011;6591;51.446;5.404;2023-03-11T13:26:49;3.07;;;1.00;;
13048;SDS011;6591;51.446;5.404;2023-03-11T13:42:25;2.67;;;1.10;;
13048;SDS011;6591;51.446;5.404;2023-03-11T13:45:11;2.77;;;1.37;;
13048;SDS011;6591;51.446;5.404;2023-03-11T13:47:48;2.07;;;1.13;;
13048;SDS011;6591;51.446;5.404;2023-03-11T13:50:23;2.30;;;1.00;;
13048;SDS011;6591;51.446;5.404;2023-03-11T13:53:01;2.90;;;0.93;;
13048;SDS011;6591;51.446;5.404;2023-03-11T13:55:37;1.33;;;1.00;;
13048;SDS011;6591;51.446;5.404;2023-03-11T13:58:20;1.33;;;0.80;;
13048;SDS011;6591;51.446;5.404;2023-03-11T14:00:56;1.80;;;0.90;;
13048;SDS011;6591;51.446;5.404;2023-03-11T14:03:28;1.60;;;0.87;;
13048;SDS011;6591;51.446;5.404;2023-03-11T14:06:15;1.70;;;0.90;;
13048;SDS011;6591;51.446;5.404;2023-03-11T14:08:55;1.67;;;0.90;;
13048;SDS011;6591;51.446;5.404;2023-03-11T14:11:26;1.10;;;1.00;;
13048;SDS011;6591;51.446;5.404;2023-03-11T14:13:56;2.17;;;1.20;;
13048;SDS011;6591;51.446;5.404;2023-03-11T14:16:34;1.50;;;1.00;;
13048;SDS011;6591;51.446;5.404;2023-03-11T14:19:16;1.53;;;0.87;;
13048;SDS011;6591;51.446;5.404;2023-03-11T14:21:45;1.47;;;1.10;;
13048;SDS011;6591;51.446;5.404;2023-03-11T14:24:18;1.63;;;1.00;;
13048;SDS011;6591;51.446;5.404;2023-03-11T14:26:50;3.53;;;1.10;;
13048;SDS011;6591;51.446;5.404;2023-03-11T14:29:34;1.20;;;1.10;;
13048;SDS011;6591;51.446;5.404;2023-03-11T14:32:16;2.20;;;1.17;;
13048;SDS011;6591;51.446;5.404;2023-03-11T14:35:01;2.30;;;1.10;;
13048;SDS011;6591;51.446;5.404;2023-03-11T14:37:45;1.83;;;1.07;;
13048;SDS011;6591;51.446;5.404;2023-03-11T14:40:21;1.43;;;1.00;;
13048;SDS011;6591;51.446;5.404;2023-03-11T14:42:59;2.60;;;1.00;;
13048;SDS011;6591;51.446;5.404;2023-03-11T14:45:32;1.20;;;0.90;;
13048;SDS011;6591;51.446;5.404;2023-03-11T14:48:05;4.30;;;1.03;;
13048;SDS011;6591;51.446;5.404;2023-03-11T14:50:42;1.60;;;1.27;;
13048;SDS011;6591;51.446;5.404;2023-03-11T14:53:25;2.03;;;1.00;;
13048;SDS011;6591;51.446;5.404;2023-03-11T14:56:22;1.43;;;1.00;;
13048;SDS011;6591;51.446;5.404;2023-03-11T14:59:39;1.63;;;1.20;;
13048;SDS011;6591;51.446;5.404;2023-03-11T15:02:11;5.23;;;1.43;;
13048;SDS011;6591;51.446;5.404;2023-03-11T15:05:08;2.77;;;1.30;;
13048;SDS011;6591;51.446;5.404;2023-03-11T15:07:56;1.77;;;1.23;;
13048;SDS011;6591;51.446;5.404;2023-03-11T15:10:28;1.73;;;1.07;;
13048;SDS011;6591;51.446;5.404;2023-03-11T15:13:06;1.80;;;1.17;;
13048;SDS011;6591;51.446;5.404;2023-03-11T15:15:42;2.83;;;1.10;;
13048;SDS011;6591;51.446;5.404;2023-03-11T15:18:18;2.17;;;1.17;;
13048;SDS011;6591;51.446;5.404;2023-03-11T15:21:03;2.20;;;1.10;;
13048;SDS011;6591;51.446;5.404;2023-03-11T15:23:45;1.87;;;1.07;;
13048;SDS011;6591;51.446;5.404;2023-03-11T15:26:17;3.40;;;1.17;;
13048;SDS011;6591;51.446;5.404;2023-03-11T15:28:52;1.23;;;1.10;;
13048;SDS011;6591;51.446;5.404;2023-03-11T15:31:26;3.17;;;1.10;;
13048;SDS011;6591;51.446;5.404;2023-03-11T15:37:19;2.63;;;1.20;;
13048;SDS011;6591;51.446;5.404;2023-03-11T15:39:55;1.50;;;1.10;;
13048;SDS011;6591;51.446;5.404;2023-03-11T15:42:38;1.50;;;0.90;;
13048;SDS011;6591;51.446;5.404;2023-03-11T15:45:16;2.27;;;1.20;;
13048;SDS011;6591;51.446;5.404;2023-03-11T15:47:47;1.97;;;1.20;;
13048;SDS011;6591;51.446;5.404;2023-03-11T15:50:23;2.27;;;1.10;;
13048;SDS011;6591;51.446;5.404;2023-03-11T15:53:15;5.40;;;1.27;;
13048;SDS011;6591;51.446;5.404;2023-03-11T15:55:42;2.20;;;1.10;;
13048;SDS011;6591;51.446;5.404;2023-03-11T15:58:11;1.60;;;1.00;;
13048;SDS011;6591;51.446;5.404;2023-03-11T16:00:46;2.70;;;1.30;;
13048;SDS011;6591;51.446;5.404;2023-03-11T16:03:19;1.70;;;1.17;;
13048;SDS011;6591;51.446;5.404;2023-03-11T16:05:46;2.20;;;0.97;;
13048;SDS011;6591;51.446;5.404;2023-03-11T16:08:17;2.13;;;1.20;;
13048;SDS011;6591;51.446;5.404;2023-03-11T16:10:44;1.27;;;1.13;;
13048;SDS011;6591;51.446;5.404;2023-03-11T16:13:12;1.57;;;0.83;;
13048;SDS011;6591;51.446;5.404;2023-03-11T16:15:41;1.30;;;0.93;;
13048;SDS011;6591;51.446;5.404;2023-03-11T16:18:09;2.47;;;1.10;;
13048;SDS011;6591;51.446;5.404;2023-03-11T16:20:44;1.17;;;0.90;;
13048;SDS011;6591;51.446;5.404;2023-03-11T16:23:17;0.90;;;0.77;;
13048;SDS011;6591;51.446;5.404;2023-03-11T16:25:47;0.97;;;0.90;;
13048;SDS011;6591;51.446;5.404;2023-03-11T16:28:18;1.33;;;1.03;;
13048;SDS011;6591;51.446;5.404;2023-03-11T16:30:46;3.60;;;1.23;;
13048;SDS011;6591;51.446;5.404;2023-03-11T16:33:18;1.20;;;1.00;;
13048;SDS011;6591;51.446;5.404;2023-03-11T16:35:45;2.87;;;1.10;;
13048;SDS011;6591;51.446;5.404;2023-03-11T16:38:13;2.60;;;1.10;;
13048;SDS011;6591;51.446;5.404;2023-03-11T16:40:43;1.27;;;1.13;;
13048;SDS011;6591;51.446;5.404;2023-03-11T16:43:11;3.13;;;1.30;;
13048;SDS011;6591;51.446;5.404;2023-03-11T16:45:40;2.47;;;1.10;;
13048;SDS011;6591;51.446;5.404;2023-03-11T16:48:07;1.30;;;1.00;;
13048;SDS011;6591;51.446;5.404;2023-03-11T16:50:34;1.67;;;1.00;;
13048;SDS011;6591;51.446;5.404;2023-03-11T16:53:03;2.03;;;1.30;;
13048;SDS011;6591;51.446;5.404;2023-03-11T16:55:30;1.80;;;1.10;;
13048;SDS011;6591;51.446;5.404;2023-03-11T16:57:58;2.33;;;1.40;;
13048;SDS011;6591;51.446;5.404;2023-03-11T17:00:25;3.00;;;1.27;;
13048;SDS011;6591;51.446;5.404;2023-03-11T17:02:52;3.80;;;1.33;;
13048;SDS011;6591;51.446;5.404;2023-03-11T17:05:20;3.73;;;1.50;;
13048;SDS011;6591;51.446;5.404;2023-03-11T17:07:47;3.23;;;1.40;;
13048;SDS011;6591;51.446;5.404;2023-03-11T17:10:22;1.67;;;1.20;;
13048;SDS011;6591;51.446;5.404;2023-03-11T17:12:49;2.37;;;1.20;;
13048;SDS011;6591;51.446;5.404;2023-03-11T17:15:19;2.70;;;1.53;;
13048;SDS011;6591;51.446;5.404;2023-03-11T17:17:46;2.87;;;1.40;;
13048;SDS011;6591;51.446;5.404;2023-03-11T17:20:15;2.73;;;1.20;;
13048;SDS011;6591;51.446;5.404;2023-03-11T17:22:42;3.03;;;1.23;;
13048;SDS011;6591;51.446;5.404;2023-03-11T17:25:09;2.20;;;1.10;;
13048;SDS011;6591;51.446;5.404;2023-03-11T17:27:36;2.37;;;1.10;;